createdAt,value
2019-02-27T00:00:31.924Z,4.80
2019-02-27T00:03:05.155Z,4.70
2019-02-27T00:05:41.407Z,4.70
2019-02-27T00:08:10.963Z,4.60
2019-02-27T00:10:41.257Z,4.60
2019-02-27T00:13:11.685Z,4.50
2019-02-27T00:15:42.083Z,4.50
2019-02-27T00:18:12.562Z,4.50
2019-02-27T00:20:42.934Z,4.40
2019-02-27T00:23:15.328Z,4.40
2019-02-27T00:25:45.798Z,4.40
2019-02-27T00:28:18.655Z,4.30
2019-02-27T00:30:51.810Z,4.30
2019-02-27T00:33:25.240Z,4.30
2019-02-27T00:35:57.393Z,4.30
2019-02-27T00:38:27.832Z,4.30
2019-02-27T00:40:59.380Z,4.30
2019-02-27T00:43:29.715Z,4.30
2019-02-27T00:46:01.643Z,4.30
2019-02-27T00:48:32.534Z,4.40
2019-02-27T00:51:09.585Z,4.40
2019-02-27T00:53:36.196Z,4.30
2019-02-27T00:56:06.554Z,4.30
2019-02-27T00:58:37.317Z,4.30
2019-02-27T01:01:12.626Z,4.20
2019-02-27T01:03:43.613Z,4.20
2019-02-27T01:06:17.362Z,4.10
2019-02-27T01:08:47.903Z,4.10
2019-02-27T01:11:19.005Z,4.00
2019-02-27T01:13:50.176Z,4.00
2019-02-27T01:16:24.126Z,3.90
2019-02-27T01:18:55.393Z,3.90
2019-02-27T01:21:25.799Z,3.90
2019-02-27T01:23:59.097Z,3.90
2019-02-27T01:26:34.168Z,3.90
2019-02-27T01:29:04.652Z,3.90
2019-02-27T01:31:39.796Z,3.80
2019-02-27T01:34:11.357Z,3.80
2019-02-27T01:36:43.939Z,3.70
2019-02-27T01:39:14.661Z,3.70
2019-02-27T01:41:45.548Z,3.80
2019-02-27T01:44:15.888Z,3.80
2019-02-27T01:46:47.737Z,3.80
2019-02-27T01:49:18.070Z,3.80
2019-02-27T01:51:50.009Z,3.70
2019-02-27T01:54:20.436Z,3.70
2019-02-27T01:56:50.761Z,3.70
2019-02-27T01:59:23.320Z,3.60
2019-02-27T02:01:54.183Z,3.60
2019-02-27T02:04:25.944Z,3.50
2019-02-27T02:06:58.899Z,3.40
2019-02-27T02:09:33.749Z,3.40
2019-02-27T02:12:08.666Z,3.40
2019-02-27T02:15:35.308Z,3.40
2019-02-27T02:18:54.383Z,3.30
2019-02-27T02:21:59.504Z,3.30
2019-02-27T02:25:08.553Z,3.30
2019-02-27T02:28:29.560Z,3.20
2019-02-27T02:31:33.244Z,3.20
2019-02-27T02:34:56.632Z,3.20
2019-02-27T02:38:12.063Z,3.20
2019-02-27T02:41:17.670Z,3.10
2019-02-27T02:44:11.703Z,3.10
2019-02-27T02:47:20.024Z,3.10
2019-02-27T02:50:31.019Z,3.10
2019-02-27T02:53:16.571Z,3.10
2019-02-27T02:56:12.930Z,3.00
2019-02-27T02:59:28.597Z,3.00
2019-02-27T03:02:13.619Z,3.00
2019-02-27T03:05:06.882Z,3.00
2019-02-27T03:08:21.086Z,2.90
2019-02-27T03:11:37.681Z,2.90
2019-02-27T03:14:53.141Z,2.90
2019-02-27T03:18:02.522Z,2.90
2019-02-27T03:21:05.904Z,2.80
2019-02-27T03:24:15.569Z,2.80
2019-02-27T03:27:30.539Z,2.80
2019-02-27T03:30:40.618Z,2.80
2019-02-27T03:33:52.201Z,2.80
2019-02-27T03:36:59.043Z,2.80
2019-02-27T03:40:10.650Z,2.80
2019-02-27T03:43:10.457Z,2.80
2019-02-27T03:45:55.460Z,2.80
2019-02-27T03:49:04.595Z,2.70
2019-02-27T03:52:45.132Z,2.70
2019-02-27T03:56:01.192Z,2.70
2019-02-27T03:58:56.848Z,2.70
2019-02-27T04:01:57.715Z,2.80
2019-02-27T04:04:54.429Z,2.80
2019-02-27T04:08:08.954Z,2.70
2019-02-27T04:10:41.389Z,2.60
2019-02-27T04:13:26.990Z,2.60
2019-02-27T04:15:58.359Z,2.70
2019-02-27T04:18:28.693Z,2.70
2019-02-27T04:21:02.130Z,2.80
2019-02-27T04:23:40.024Z,2.80
2019-02-27T04:26:11.905Z,2.70
2019-02-27T04:28:44.148Z,2.70
2019-02-27T04:31:15.776Z,2.60
2019-02-27T04:33:46.219Z,2.60
2019-02-27T04:36:19.838Z,2.60
2019-02-27T04:38:50.690Z,2.50
2019-02-27T04:41:21.315Z,2.50
2019-02-27T04:43:52.185Z,2.50
2019-02-27T04:46:24.985Z,2.50
2019-02-27T04:48:55.375Z,2.50
2019-02-27T04:51:28.069Z,2.50
2019-02-27T04:54:06.305Z,2.50
2019-02-27T04:56:35.288Z,2.50
2019-02-27T04:59:06.157Z,2.50
2019-02-27T05:01:37.428Z,2.50
2019-02-27T05:04:07.843Z,2.50
2019-02-27T05:06:39.821Z,2.50
2019-02-27T05:09:12.655Z,2.50
2019-02-27T05:11:48.251Z,2.50
2019-02-27T05:14:18.575Z,2.50
2019-02-27T05:16:49.043Z,2.50
2019-02-27T05:19:19.658Z,2.40
2019-02-27T05:21:52.586Z,2.40
2019-02-27T05:24:22.566Z,2.40
2019-02-27T05:26:52.946Z,2.40
2019-02-27T05:29:24.389Z,2.40
2019-02-27T05:31:54.724Z,2.30
2019-02-27T05:34:26.157Z,2.30
2019-02-27T05:36:57.094Z,2.30
2019-02-27T05:39:28.563Z,2.30
2019-02-27T05:42:00.841Z,2.30
2019-02-27T05:44:31.886Z,2.20
2019-02-27T05:47:02.253Z,2.20
2019-02-27T05:49:32.644Z,2.30
2019-02-27T05:52:03.250Z,2.30
2019-02-27T05:54:34.875Z,2.30
2019-02-27T05:57:05.258Z,2.30
2019-02-27T05:59:42.005Z,2.30
2019-02-27T06:02:16.969Z,2.30
2019-02-27T06:04:47.391Z,2.30
2019-02-27T06:07:19.014Z,2.20
2019-02-27T06:09:49.947Z,2.20
2019-02-27T06:12:21.401Z,2.20
2019-02-27T06:14:54.773Z,2.20
2019-02-27T06:17:24.885Z,2.30
2019-02-27T06:19:57.938Z,2.30
2019-02-27T06:22:30.408Z,2.30
2019-02-27T06:25:00.255Z,2.40
2019-02-27T06:27:31.703Z,2.40
2019-02-27T06:30:02.110Z,2.40
2019-02-27T06:32:35.710Z,2.30
2019-02-27T06:35:06.304Z,2.30
2019-02-27T06:37:36.590Z,2.30
2019-02-27T06:40:11.517Z,2.30
2019-02-27T06:42:42.038Z,2.30
2019-02-27T06:45:16.085Z,2.30
2019-02-27T06:47:51.889Z,2.30
2019-02-27T06:50:31.120Z,2.40
2019-02-27T06:53:01.509Z,2.40
2019-02-27T06:55:33.829Z,2.40
2019-02-27T06:58:04.079Z,2.60
2019-02-27T07:00:36.751Z,2.60
2019-02-27T07:03:07.288Z,2.70
2019-02-27T07:05:37.549Z,2.80
2019-02-27T07:08:07.865Z,2.90
2019-02-27T07:10:38.191Z,3.00
2019-02-27T07:13:08.971Z,3.10
2019-02-27T07:15:40.782Z,3.20
2019-02-27T07:18:11.932Z,3.30
2019-02-27T07:20:42.367Z,3.40
2019-02-27T07:23:12.714Z,3.50
2019-02-27T07:25:43.167Z,3.60
2019-02-27T07:28:13.519Z,3.70
2019-02-27T07:30:43.857Z,3.80
2019-02-27T07:33:15.357Z,3.90
2019-02-27T07:35:45.653Z,4.00
2019-02-27T07:38:15.996Z,4.10
2019-02-27T07:40:46.244Z,4.30
2019-02-27T07:43:17.060Z,4.50
2019-02-27T07:45:47.298Z,4.70
2019-02-27T07:48:17.568Z,4.90
2019-02-27T07:50:49.160Z,5.10
2019-02-27T07:53:20.572Z,5.20
2019-02-27T07:55:52.491Z,5.30
2019-02-27T07:58:24.637Z,5.50
2019-02-27T08:00:55.099Z,5.70
2019-02-27T08:03:25.561Z,5.90
2019-02-27T08:05:55.995Z,5.90
2019-02-27T08:08:26.291Z,6.00
2019-02-27T08:10:56.552Z,6.10
2019-02-27T08:13:29.636Z,6.30
2019-02-27T08:15:59.212Z,6.40
2019-02-27T08:18:30.618Z,6.50
2019-02-27T08:21:01.531Z,6.70
2019-02-27T08:23:32.866Z,7.00
2019-02-27T08:26:05.096Z,7.20
2019-02-27T08:28:35.665Z,7.50
2019-02-27T08:31:05.945Z,7.70
2019-02-27T08:33:40.367Z,7.90
2019-02-27T08:36:10.616Z,8.30
2019-02-27T08:38:41.066Z,8.60
2019-02-27T08:41:11.763Z,8.80
2019-02-27T08:43:42.051Z,8.90
2019-02-27T08:46:12.299Z,9.10
2019-02-27T08:48:42.672Z,9.30
2019-02-27T08:51:13.000Z,9.40
2019-02-27T08:53:43.392Z,9.60
2019-02-27T08:56:14.813Z,9.80
2019-02-27T08:58:45.038Z,9.90
2019-02-27T09:01:15.298Z,10.00
2019-02-27T09:03:45.595Z,10.20
2019-02-27T09:06:18.356Z,10.40
2019-02-27T09:08:47.786Z,10.50
2019-02-27T09:11:18.161Z,10.50
2019-02-27T09:13:48.471Z,10.60
2019-02-27T09:16:18.814Z,10.70
2019-02-27T09:18:49.160Z,10.90
2019-02-27T09:21:19.463Z,11.10
2019-02-27T09:23:49.659Z,11.20
2019-02-27T09:26:20.248Z,11.30
2019-02-27T09:28:50.511Z,11.50
2019-02-27T09:31:20.947Z,11.80
2019-02-27T09:33:53.409Z,11.90
2019-02-27T09:36:23.449Z,12.10
2019-02-27T09:38:57.370Z,12.20
2019-02-27T09:41:26.032Z,12.20
2019-02-27T09:43:58.563Z,12.40
2019-02-27T09:46:28.626Z,12.60
2019-02-27T09:48:58.966Z,12.80
2019-02-27T09:51:29.358Z,12.80
2019-02-27T09:53:59.807Z,13.00
2019-02-27T09:56:30.206Z,13.10
2019-02-27T09:59:00.685Z,13.30
2019-02-27T10:01:35.140Z,13.40
2019-02-27T10:04:04.314Z,13.60
2019-02-27T10:06:34.777Z,13.80
2019-02-27T10:09:07.474Z,13.90
2019-02-27T10:11:42.043Z,13.90
2019-02-27T10:14:14.105Z,14.00
2019-02-27T10:16:45.843Z,14.10
2019-02-27T10:19:17.156Z,14.10
2019-02-27T10:21:47.861Z,14.30
2019-02-27T10:24:18.773Z,14.30
2019-02-27T10:26:49.070Z,14.40
2019-02-27T10:29:20.042Z,14.50
2019-02-27T10:31:50.436Z,14.60
2019-02-27T10:34:20.828Z,14.70
2019-02-27T10:36:51.227Z,14.70
2019-02-27T10:39:23.314Z,14.80
2019-02-27T10:41:53.618Z,15.00
2019-02-27T10:44:23.915Z,15.00
2019-02-27T10:46:59.851Z,15.10
2019-02-27T10:49:29.328Z,15.10
2019-02-27T10:51:59.620Z,15.30
2019-02-27T10:54:30.039Z,15.30
2019-02-27T10:57:01.909Z,15.40
2019-02-27T10:59:32.402Z,15.50
2019-02-27T11:02:02.793Z,15.50
2019-02-27T11:04:38.925Z,15.60
2019-02-27T11:07:13.257Z,15.60
2019-02-27T11:09:43.306Z,15.60
2019-02-27T11:12:15.165Z,15.70
2019-02-27T11:14:46.607Z,15.80
2019-02-27T11:17:17.052Z,15.90
2019-02-27T11:19:47.647Z,16.00
2019-02-27T11:22:18.934Z,16.00
2019-02-27T11:24:52.521Z,16.00
2019-02-27T11:27:23.272Z,16.00
2019-02-27T11:29:53.786Z,16.10
2019-02-27T11:32:24.312Z,16.10
2019-02-27T11:34:58.106Z,16.10
2019-02-27T11:37:28.409Z,16.20
2019-02-27T11:39:59.043Z,16.30
2019-02-27T11:42:32.054Z,16.40
2019-02-27T11:45:01.571Z,16.50
2019-02-27T11:47:33.080Z,16.40
2019-02-27T11:50:06.630Z,16.40
2019-02-27T11:52:37.082Z,16.40
2019-02-27T11:55:08.255Z,16.40
2019-02-27T11:57:38.794Z,16.50
2019-02-27T12:00:13.654Z,16.60
2019-02-27T12:02:45.574Z,16.60
2019-02-27T12:05:16.382Z,16.60
2019-02-27T12:07:50.567Z,16.70
2019-02-27T12:10:20.764Z,16.80
2019-02-27T12:12:51.097Z,16.90
2019-02-27T12:15:21.492Z,17.00
2019-02-27T12:17:52.008Z,17.00
2019-02-27T12:20:22.935Z,17.00
2019-02-27T12:22:55.292Z,17.10
2019-02-27T12:25:29.023Z,17.20
2019-02-27T12:27:57.924Z,17.20
2019-02-27T12:30:28.680Z,17.20
2019-02-27T12:33:02.107Z,17.40
2019-02-27T12:35:32.868Z,17.50
2019-02-27T12:38:06.906Z,17.50
2019-02-27T12:40:35.829Z,17.70
2019-02-27T12:43:06.370Z,17.80
2019-02-27T12:45:36.876Z,17.80
2019-02-27T12:48:07.283Z,17.80
2019-02-27T12:50:38.883Z,17.90
2019-02-27T12:53:10.433Z,18.00
2019-02-27T12:55:40.890Z,18.00
2019-02-27T12:58:13.369Z,18.00
2019-02-27T13:00:46.172Z,18.00
2019-02-27T13:03:16.722Z,17.90
2019-02-27T13:05:47.963Z,18.00
2019-02-27T13:08:18.885Z,18.10
2019-02-27T13:10:49.914Z,18.00
2019-02-27T13:13:25.913Z,18.00
2019-02-27T13:15:57.234Z,18.00
2019-02-27T13:18:31.731Z,18.00
2019-02-27T13:21:00.066Z,18.00
2019-02-27T13:23:31.027Z,17.90
2019-02-27T13:26:01.945Z,18.00
2019-02-27T13:28:32.405Z,18.10
2019-02-27T13:31:03.320Z,18.20
2019-02-27T13:33:35.519Z,18.20
2019-02-27T13:36:06.574Z,18.20
2019-02-27T13:38:38.940Z,18.20
2019-02-27T13:41:10.566Z,18.20
2019-02-27T13:43:41.603Z,18.20
2019-02-27T13:46:14.593Z,18.30
2019-02-27T13:48:45.098Z,18.20
2019-02-27T13:51:15.592Z,18.20
2019-02-27T13:53:52.897Z,18.20
2019-02-27T13:56:25.148Z,18.20
2019-02-27T13:58:55.616Z,18.10
2019-02-27T14:01:28.516Z,18.10
2019-02-27T14:03:58.539Z,18.20
2019-02-27T14:06:28.914Z,18.20
2019-02-27T14:08:59.428Z,18.20
2019-02-27T14:11:29.916Z,18.20
2019-02-27T14:14:00.602Z,18.30
2019-02-27T14:16:34.537Z,18.20
2019-02-27T14:19:03.214Z,18.20
2019-02-27T14:21:36.182Z,18.30
2019-02-27T14:24:07.503Z,18.40
2019-02-27T14:26:38.248Z,18.40
2019-02-27T14:29:15.660Z,18.30
2019-02-27T14:31:46.102Z,18.20
2019-02-27T14:34:16.480Z,18.40
2019-02-27T14:36:48.965Z,18.50
2019-02-27T14:39:19.573Z,18.50
2019-02-27T14:41:51.375Z,18.50
2019-02-27T14:44:22.001Z,18.60
2019-02-27T14:46:52.364Z,18.60
2019-02-27T14:49:23.909Z,18.60
2019-02-27T14:51:55.130Z,18.60
2019-02-27T14:54:26.089Z,18.50
2019-02-27T14:56:58.667Z,18.50
2019-02-27T14:59:31.275Z,18.60
2019-02-27T15:02:01.149Z,18.60
2019-02-27T15:04:32.433Z,18.50
2019-02-27T15:07:03.702Z,18.40
2019-02-27T15:09:36.515Z,18.30
2019-02-27T15:12:06.221Z,18.30
2019-02-27T15:14:36.703Z,18.30
2019-02-27T15:17:07.061Z,18.20
2019-02-27T15:19:37.941Z,18.20
2019-02-27T15:22:08.448Z,18.10
2019-02-27T15:24:38.891Z,18.00
2019-02-27T15:27:09.603Z,18.00
2019-02-27T15:29:40.323Z,17.80
2019-02-27T15:32:10.827Z,17.70
2019-02-27T15:34:42.715Z,17.60
2019-02-27T15:37:13.486Z,17.50
2019-02-27T15:39:44.006Z,17.50
2019-02-27T15:42:16.145Z,17.40
2019-02-27T15:44:46.644Z,17.30
2019-02-27T15:47:17.194Z,17.30
2019-02-27T15:49:48.820Z,17.40
2019-02-27T15:52:21.461Z,17.20
2019-02-27T15:54:51.867Z,17.30
2019-02-27T15:57:22.214Z,17.20
2019-02-27T15:59:52.624Z,17.10
2019-02-27T16:02:23.059Z,17.00
2019-02-27T16:04:55.440Z,16.90
2019-02-27T16:07:25.651Z,16.80
2019-02-27T16:09:56.065Z,16.60
2019-02-27T16:12:27.467Z,16.50
2019-02-27T16:14:57.940Z,16.40
2019-02-27T16:17:30.880Z,16.20
2019-02-27T16:20:00.363Z,16.20
2019-02-27T16:22:31.477Z,16.00
2019-02-27T16:25:01.960Z,15.90
2019-02-27T16:27:38.746Z,15.80
2019-02-27T16:30:14.039Z,15.70
2019-02-27T16:32:48.549Z,15.60
2019-02-27T16:35:17.167Z,15.50
2019-02-27T16:37:48.892Z,15.40
2019-02-27T16:40:19.867Z,15.20
2019-02-27T16:42:52.189Z,15.10
2019-02-27T16:45:24.733Z,15.00
2019-02-27T16:47:57.225Z,14.90
2019-02-27T16:50:30.254Z,14.80
2019-02-27T16:53:00.603Z,14.70
2019-02-27T16:55:35.619Z,14.60
2019-02-27T16:58:04.790Z,14.40
2019-02-27T17:00:35.535Z,14.30
2019-02-27T17:03:06.066Z,14.10
2019-02-27T17:05:36.514Z,14.00
2019-02-27T17:08:06.862Z,13.90
2019-02-27T17:10:37.334Z,13.70
2019-02-27T17:13:14.675Z,13.60
2019-02-27T17:15:42.087Z,13.50
2019-02-27T17:18:12.813Z,13.40
2019-02-27T17:20:45.714Z,13.20
2019-02-27T17:23:15.368Z,13.20
2019-02-27T17:25:45.852Z,13.10
2019-02-27T17:28:16.348Z,13.00
2019-02-27T17:30:49.755Z,13.00
2019-02-27T17:33:20.503Z,13.00
2019-02-27T17:35:53.027Z,12.90
2019-02-27T17:38:23.355Z,12.80
2019-02-27T17:40:53.747Z,12.70
2019-02-27T17:43:28.529Z,12.60
2019-02-27T17:45:58.523Z,12.50
2019-02-27T17:48:28.883Z,12.40
2019-02-27T17:50:59.281Z,12.40
2019-02-27T17:53:30.730Z,12.30
2019-02-27T17:56:01.259Z,12.20
2019-02-27T17:58:34.949Z,12.00
2019-02-27T18:01:06.172Z,11.90
2019-02-27T18:03:41.005Z,11.80
2019-02-27T18:06:08.665Z,11.70
2019-02-27T18:08:39.558Z,11.60
2019-02-27T18:11:12.279Z,11.50
2019-02-27T18:13:42.010Z,11.40
2019-02-27T18:16:13.096Z,11.30
2019-02-27T18:18:46.144Z,11.20
2019-02-27T18:21:16.521Z,11.10
2019-02-27T18:23:48.288Z,10.90
2019-02-27T18:26:18.565Z,10.90
2019-02-27T18:28:50.450Z,10.80
2019-02-27T18:31:26.674Z,10.70
2019-02-27T18:33:54.104Z,10.60
2019-02-27T18:36:24.424Z,10.50
2019-02-27T18:38:55.285Z,10.40
2019-02-27T18:41:25.698Z,10.30
2019-02-27T18:43:56.958Z,10.30
2019-02-27T18:46:27.845Z,10.20
2019-02-27T18:48:58.148Z,10.20
2019-02-27T18:51:35.246Z,10.10
2019-02-27T18:54:10.211Z,10.00
2019-02-27T18:56:40.541Z,10.00
2019-02-27T18:59:12.119Z,9.90
2019-02-27T19:01:45.198Z,9.80
2019-02-27T19:04:14.619Z,9.80
2019-02-27T19:06:46.252Z,9.80
2019-02-27T19:09:17.325Z,9.70
2019-02-27T19:11:50.905Z,9.70
2019-02-27T19:14:20.950Z,9.70
2019-02-27T19:16:55.018Z,9.70
2019-02-27T19:19:24.525Z,9.70
2019-02-27T19:21:55.219Z,9.70
2019-02-27T19:24:27.530Z,9.70
2019-02-27T19:26:58.821Z,9.60
2019-02-27T19:29:31.886Z,9.40
2019-02-27T19:32:04.216Z,9.30
2019-02-27T19:34:36.549Z,9.20
2019-02-27T19:37:07.054Z,9.20
2019-02-27T19:39:40.189Z,9.20
2019-02-27T19:42:13.098Z,9.10
2019-02-27T19:44:44.322Z,9.10
2019-02-27T19:47:14.867Z,9.30
2019-02-27T19:49:47.636Z,9.30
2019-02-27T19:52:18.084Z,9.40
2019-02-27T19:54:52.619Z,9.40
2019-02-27T19:57:22.861Z,9.40
2019-02-27T19:59:58.844Z,9.30
2019-02-27T20:02:27.978Z,9.20
2019-02-27T20:05:00.270Z,9.10
2019-02-27T20:07:32.890Z,9.00
2019-02-27T20:10:02.907Z,8.90
2019-02-27T20:12:34.049Z,8.70
2019-02-27T20:15:05.062Z,8.70
2019-02-27T20:17:35.890Z,8.60
2019-02-27T20:20:08.273Z,8.50
2019-02-27T20:22:38.972Z,8.40
2019-02-27T20:25:11.844Z,8.30
2019-02-27T20:27:42.450Z,8.30
2019-02-27T20:30:16.327Z,8.30
2019-02-27T20:32:47.493Z,8.40
2019-02-27T20:35:20.746Z,8.40
2019-02-27T20:37:51.037Z,8.30
2019-02-27T20:40:21.617Z,8.20
2019-02-27T20:42:54.961Z,8.10
2019-02-27T20:45:26.489Z,8.10
2019-02-27T20:47:59.965Z,8.10
2019-02-27T20:50:35.003Z,8.00
2019-02-27T20:53:04.012Z,7.90
2019-02-27T20:55:34.548Z,7.90
2019-02-27T20:58:05.150Z,7.90
2019-02-27T21:00:36.506Z,7.80
2019-02-27T21:03:08.175Z,7.80
2019-02-27T21:05:40.843Z,7.70
2019-02-27T21:08:10.770Z,7.60
2019-02-27T21:10:41.190Z,7.50
2019-02-27T21:13:15.642Z,7.50
2019-02-27T21:15:46.993Z,7.40
2019-02-27T21:18:17.270Z,7.40
2019-02-27T21:20:47.643Z,7.30
2019-02-27T21:23:18.033Z,7.30
2019-02-27T21:25:49.208Z,7.30
2019-02-27T21:28:21.393Z,7.20
2019-02-27T21:30:53.242Z,7.20
2019-02-27T21:33:23.822Z,7.10
2019-02-27T21:35:56.179Z,7.10
2019-02-27T21:38:26.541Z,7.00
2019-02-27T21:40:57.349Z,7.00
2019-02-27T21:43:27.715Z,7.00
2019-02-27T21:45:58.258Z,7.00
2019-02-27T21:48:28.541Z,7.20
2019-02-27T21:50:58.985Z,7.20
2019-02-27T21:53:29.726Z,7.30
2019-02-27T21:56:00.087Z,7.20
2019-02-27T21:58:32.822Z,7.20
2019-02-27T22:01:03.450Z,7.20
2019-02-27T22:03:35.267Z,7.20
2019-02-27T22:06:05.863Z,7.20
2019-02-27T22:08:38.905Z,7.20
2019-02-27T22:11:08.271Z,7.20
2019-02-27T22:13:42.089Z,7.20
2019-02-27T22:16:12.528Z,7.10
2019-02-27T22:18:46.807Z,7.10
2019-02-27T22:21:15.213Z,7.10
2019-02-27T22:23:46.019Z,7.10
2019-02-27T22:26:16.383Z,7.10
2019-02-27T22:28:46.727Z,7.20
2019-02-27T22:31:17.049Z,7.20
2019-02-27T22:33:47.375Z,7.10
2019-02-27T22:36:17.727Z,7.10
2019-02-27T22:38:48.642Z,7.10
2019-02-27T22:41:21.822Z,7.00
2019-02-27T22:43:53.203Z,6.90
2019-02-27T22:46:24.038Z,6.80
2019-02-27T22:48:54.366Z,6.80
2019-02-27T22:51:24.774Z,6.80
2019-02-27T22:53:55.166Z,6.80
2019-02-27T22:56:25.441Z,6.80
2019-02-27T22:58:55.702Z,6.70
2019-02-27T23:01:39.293Z,6.70
2019-02-27T23:04:11.005Z,6.60
2019-02-27T23:06:43.764Z,6.50
2019-02-27T23:09:15.256Z,6.50
2019-02-27T23:11:46.820Z,6.40
2019-02-27T23:14:18.932Z,6.30
2019-02-27T23:16:49.681Z,6.30
2019-02-27T23:19:19.791Z,6.20
2019-02-27T23:21:50.068Z,6.20
2019-02-27T23:24:20.500Z,6.20
2019-02-27T23:26:54.394Z,6.10
2019-02-27T23:29:22.935Z,6.10
2019-02-27T23:31:54.760Z,6.10
2019-02-27T23:34:25.375Z,6.10
2019-02-27T23:36:56.463Z,6.10
2019-02-27T23:39:26.821Z,6.10
2019-02-27T23:41:57.265Z,6.10
2019-02-27T23:44:27.894Z,6.00
2019-02-27T23:46:58.340Z,5.90
2019-02-27T23:49:28.547Z,5.90
2019-02-27T23:51:58.903Z,5.90
2019-02-27T23:54:35.493Z,5.80
2019-02-27T23:57:02.324Z,5.80
2019-02-27T23:59:33.013Z,5.80
